sensor_id;sensor_type;location;lat;lon;timestamp;P1;durP1;ratioP1;P2;durP2;ratioP2
23362;SDS011;11853;48.080;11.960;2023-12-04T00:00:36;22.85;;;18.02;;
23362;SDS011;11853;48.080;11.960;2023-12-04T00:03:02;22.35;;;18.05;;
23362;SDS011;11853;48.080;11.960;2023-12-04T00:05:28;19.38;;;15.80;;
23362;SDS011;11853;48.080;11.960;2023-12-04T00:07:53;18.27;;;15.13;;
23362;SDS011;11853;48.080;11.960;2023-12-04T00:10:19;18.08;;;15.75;;
23362;SDS011;11853;48.080;11.960;2023-12-04T00:12:45;17.50;;;15.25;;
23362;SDS011;11853;48.080;11.960;2023-12-04T00:15:11;16.58;;;13.90;;
23362;SDS011;11853;48.080;11.960;2023-12-04T00:17:37;16.17;;;14.27;;
23362;SDS011;11853;48.080;11.960;2023-12-04T00:20:07;17.17;;;14.88;;
23362;SDS011;11853;48.080;11.960;2023-12-04T00:22:34;15.52;;;13.90;;
23362;SDS011;11853;48.080;11.960;2023-12-04T00:25:01;17.83;;;15.00;;
23362;SDS011;11853;48.080;11.960;2023-12-04T00:27:31;15.85;;;14.13;;
23362;SDS011;11853;48.080;11.960;2023-12-04T00:29:57;17.13;;;15.30;;
23362;SDS011;11853;48.080;11.960;2023-12-04T00:32:23;16.50;;;14.70;;
23362;SDS011;11853;48.080;11.960;2023-12-04T00:34:49;18.65;;;15.90;;
23362;SDS011;11853;48.080;11.960;2023-12-04T00:37:15;16.40;;;14.57;;
23362;SDS011;11853;48.080;11.960;2023-12-04T00:39:41;17.52;;;15.00;;
23362;SDS011;11853;48.080;11.960;2023-12-04T00:42:07;16.33;;;14.15;;
23362;SDS011;11853;48.080;11.960;2023-12-04T00:44:33;16.17;;;14.48;;
23362;SDS011;11853;48.080;11.960;2023-12-04T00:46:58;16.15;;;14.45;;
23362;SDS011;11853;48.080;11.960;2023-12-04T00:49:24;16.00;;;14.30;;
23362;SDS011;11853;48.080;11.960;2023-12-04T00:51:50;17.02;;;14.93;;
23362;SDS011;11853;48.080;11.960;2023-12-04T00:54:16;16.80;;;14.68;;
23362;SDS011;11853;48.080;11.960;2023-12-04T00:56:41;17.30;;;15.02;;
23362;SDS011;11853;48.080;11.960;2023-12-04T00:59:10;17.27;;;15.43;;
23362;SDS011;11853;48.080;11.960;2023-12-04T01:01:36;16.58;;;14.60;;
23362;SDS011;11853;48.080;11.960;2023-12-04T01:04:02;16.08;;;14.23;;
23362;SDS011;11853;48.080;11.960;2023-12-04T01:06:28;17.85;;;14.57;;
23362;SDS011;11853;48.080;11.960;2023-12-04T01:08:54;16.65;;;14.38;;
23362;SDS011;11853;48.080;11.960;2023-12-04T01:11:21;16.23;;;14.52;;
23362;SDS011;11853;48.080;11.960;2023-12-04T01:13:47;16.40;;;14.55;;
23362;SDS011;11853;48.080;11.960;2023-12-04T01:16:14;15.98;;;13.70;;
23362;SDS011;11853;48.080;11.960;2023-12-04T01:18:40;15.80;;;14.10;;
23362;SDS011;11853;48.080;11.960;2023-12-04T01:21:06;16.52;;;14.07;;
23362;SDS011;11853;48.080;11.960;2023-12-04T01:23:36;14.65;;;13.13;;
23362;SDS011;11853;48.080;11.960;2023-12-04T01:26:02;15.10;;;13.50;;
23362;SDS011;11853;48.080;11.960;2023-12-04T01:28:29;14.45;;;12.95;;
23362;SDS011;11853;48.080;11.960;2023-12-04T01:30:54;16.15;;;13.63;;
23362;SDS011;11853;48.080;11.960;2023-12-04T01:33:20;15.65;;;13.18;;
23362;SDS011;11853;48.080;11.960;2023-12-04T01:35:46;14.50;;;12.25;;
23362;SDS011;11853;48.080;11.960;2023-12-04T01:38:12;14.02;;;12.50;;
23362;SDS011;11853;48.080;11.960;2023-12-04T01:40:37;15.65;;;14.05;;
23362;SDS011;11853;48.080;11.960;2023-12-04T01:43:03;17.50;;;13.50;;
23362;SDS011;11853;48.080;11.960;2023-12-04T01:45:29;13.45;;;12.05;;
23362;SDS011;11853;48.080;11.960;2023-12-04T01:47:54;14.88;;;12.60;;
23362;SDS011;11853;48.080;11.960;2023-12-04T01:50:20;13.00;;;11.55;;
23362;SDS011;11853;48.080;11.960;2023-12-04T01:52:47;14.10;;;12.55;;
23362;SDS011;11853;48.080;11.960;2023-12-04T01:55:14;13.80;;;11.55;;
23362;SDS011;11853;48.080;11.960;2023-12-04T01:57:41;12.98;;;11.30;;
23362;SDS011;11853;48.080;11.960;2023-12-04T02:00:07;12.38;;;11.10;;
23362;SDS011;11853;48.080;11.960;2023-12-04T02:02:40;13.98;;;12.10;;
23362;SDS011;11853;48.080;11.960;2023-12-04T02:05:09;12.88;;;11.50;;
23362;SDS011;11853;48.080;11.960;2023-12-04T02:07:36;13.05;;;11.75;;
23362;SDS011;11853;48.080;11.960;2023-12-04T02:10:03;15.07;;;12.63;;
23362;SDS011;11853;48.080;11.960;2023-12-04T02:12:29;13.57;;;12.15;;
23362;SDS011;11853;48.080;11.960;2023-12-04T02:14:55;15.32;;;13.02;;
23362;SDS011;11853;48.080;11.960;2023-12-04T02:17:22;15.60;;;12.43;;
23362;SDS011;11853;48.080;11.960;2023-12-04T02:19:49;14.32;;;12.82;;
23362;SDS011;11853;48.080;11.960;2023-12-04T02:22:15;14.30;;;12.77;;
23362;SDS011;11853;48.080;11.960;2023-12-04T02:24:43;14.98;;;12.88;;
23362;SDS011;11853;48.080;11.960;2023-12-04T02:27:10;16.42;;;13.93;;
23362;SDS011;11853;48.080;11.960;2023-12-04T02:29:45;16.95;;;13.85;;
23362;SDS011;11853;48.080;11.960;2023-12-04T02:32:17;16.10;;;13.52;;
23362;SDS011;11853;48.080;11.960;2023-12-04T02:34:45;15.40;;;13.48;;
23362;SDS011;11853;48.080;11.960;2023-12-04T02:37:14;16.65;;;14.77;;
23362;SDS011;11853;48.080;11.960;2023-12-04T02:39:42;17.17;;;14.00;;
23362;SDS011;11853;48.080;11.960;2023-12-04T02:42:08;16.35;;;13.15;;
23362;SDS011;11853;48.080;11.960;2023-12-04T02:44:34;14.77;;;12.55;;
23362;SDS011;11853;48.080;11.960;2023-12-04T02:46:59;15.88;;;13.30;;
23362;SDS011;11853;48.080;11.960;2023-12-04T02:49:25;14.35;;;12.85;;
23362;SDS011;11853;48.080;11.960;2023-12-04T02:51:51;14.52;;;12.10;;
23362;SDS011;11853;48.080;11.960;2023-12-04T02:54:17;15.65;;;13.05;;
23362;SDS011;11853;48.080;11.960;2023-12-04T02:56:42;14.70;;;13.05;;
23362;SDS011;11853;48.080;11.960;2023-12-04T02:59:08;14.05;;;12.52;;
23362;SDS011;11853;48.080;11.960;2023-12-04T03:01:33;14.93;;;12.23;;
23362;SDS011;11853;48.080;11.960;2023-12-04T03:03:59;14.45;;;12.23;;
23362;SDS011;11853;48.080;11.960;2023-12-04T03:06:25;14.93;;;11.82;;
23362;SDS011;11853;48.080;11.960;2023-12-04T03:08:51;13.32;;;11.93;;
23362;SDS011;11853;48.080;11.960;2023-12-04T03:11:16;16.05;;;13.00;;
23362;SDS011;11853;48.080;11.960;2023-12-04T03:13:42;14.10;;;12.32;;
23362;SDS011;11853;48.080;11.960;2023-12-04T03:16:17;15.68;;;12.95;;
23362;SDS011;11853;48.080;11.960;2023-12-04T03:18:43;15.27;;;13.00;;
23362;SDS011;11853;48.080;11.960;2023-12-04T03:21:09;14.25;;;12.75;;
23362;SDS011;11853;48.080;11.960;2023-12-04T03:23:35;15.48;;;13.05;;
23362;SDS011;11853;48.080;11.960;2023-12-04T03:26:01;14.38;;;12.88;;
23362;SDS011;11853;48.080;11.960;2023-12-04T03:28:27;14.15;;;11.80;;
23362;SDS011;11853;48.080;11.960;2023-12-04T03:30:53;14.75;;;12.23;;
23362;SDS011;11853;48.080;11.960;2023-12-04T03:33:19;14.98;;;12.50;;
23362;SDS011;11853;48.080;11.960;2023-12-04T03:35:44;13.63;;;11.88;;
23362;SDS011;11853;48.080;11.960;2023-12-04T03:38:10;13.57;;;11.65;;
23362;SDS011;11853;48.080;11.960;2023-12-04T03:40:36;13.48;;;11.88;;
23362;SDS011;11853;48.080;11.960;2023-12-04T03:43:01;13.27;;;11.27;;
23362;SDS011;11853;48.080;11.960;2023-12-04T03:45:27;14.55;;;12.05;;
23362;SDS011;11853;48.080;11.960;2023-12-04T03:47:53;13.45;;;12.05;;
23362;SDS011;11853;48.080;11.960;2023-12-04T03:50:18;13.65;;;12.25;;
23362;SDS011;11853;48.080;11.960;2023-12-04T03:52:44;15.27;;;12.55;;
23362;SDS011;11853;48.080;11.960;2023-12-04T03:55:10;13.60;;;12.00;;
23362;SDS011;11853;48.080;11.960;2023-12-04T03:57:35;13.02;;;11.68;;
23362;SDS011;11853;48.080;11.960;2023-12-04T04:00:01;14.27;;;12.13;;
23362;SDS011;11853;48.080;11.960;2023-12-04T04:02:27;12.88;;;11.20;;
23362;SDS011;11853;48.080;11.960;2023-12-04T04:04:53;13.65;;;11.93;;
23362;SDS011;11853;48.080;11.960;2023-12-04T04:07:19;12.52;;;11.23;;
23362;SDS011;11853;48.080;11.960;2023-12-04T04:09:45;14.32;;;11.32;;
23362;SDS011;11853;48.080;11.960;2023-12-04T04:12:10;12.85;;;11.38;;
23362;SDS011;11853;48.080;11.960;2023-12-04T04:14:36;13.90;;;11.50;;
23362;SDS011;11853;48.080;11.960;2023-12-04T04:17:02;11.80;;;10.55;;
23362;SDS011;11853;48.080;11.960;2023-12-04T04:19:28;12.32;;;11.02;;
23362;SDS011;11853;48.080;11.960;2023-12-04T04:21:54;14.13;;;11.38;;
23362;SDS011;11853;48.080;11.960;2023-12-04T04:24:20;11.88;;;10.27;;
23362;SDS011;11853;48.080;11.960;2023-12-04T04:26:46;13.23;;;10.88;;
23362;SDS011;11853;48.080;11.960;2023-12-04T04:29:11;12.13;;;10.80;;
23362;SDS011;11853;48.080;11.960;2023-12-04T04:31:37;11.68;;;10.05;;
23362;SDS011;11853;48.080;11.960;2023-12-04T04:34:02;14.70;;;10.98;;
23362;SDS011;11853;48.080;11.960;2023-12-04T04:36:28;12.73;;;11.27;;
23362;SDS011;11853;48.080;11.960;2023-12-04T04:38:54;13.45;;;11.07;;
23362;SDS011;11853;48.080;11.960;2023-12-04T04:41:19;11.48;;;10.27;;
23362;SDS011;11853;48.080;11.960;2023-12-04T04:43:45;13.13;;;9.95;;
23362;SDS011;11853;48.080;11.960;2023-12-04T04:49:32;13.27;;;10.63;;
23362;SDS011;11853;48.080;11.960;2023-12-04T04:51:58;12.57;;;11.27;;
23362;SDS011;11853;48.080;11.960;2023-12-04T04:54:23;14.18;;;11.93;;
23362;SDS011;11853;48.080;11.960;2023-12-04T04:56:49;13.27;;;11.88;;
23362;SDS011;11853;48.080;11.960;2023-12-04T04:59:16;12.82;;;10.80;;
23362;SDS011;11853;48.080;11.960;2023-12-04T05:01:41;14.10;;;10.95;;
23362;SDS011;11853;48.080;11.960;2023-12-04T05:04:07;13.52;;;11.38;;
23362;SDS011;11853;48.080;11.960;2023-12-04T05:06:33;14.88;;;12.25;;
23362;SDS011;11853;48.080;11.960;2023-12-04T05:08:58;15.40;;;13.15;;
23362;SDS011;11853;48.080;11.960;2023-12-04T05:11:24;13.05;;;10.60;;
23362;SDS011;11853;48.080;11.960;2023-12-04T05:13:50;12.02;;;10.82;;
23362;SDS011;11853;48.080;11.960;2023-12-04T05:16:16;12.20;;;10.27;;
23362;SDS011;11853;48.080;11.960;2023-12-04T05:18:41;12.55;;;11.13;;
23362;SDS011;11853;48.080;11.960;2023-12-04T05:21:10;11.65;;;10.45;;
23362;SDS011;11853;48.080;11.960;2023-12-04T05:23:36;11.80;;;10.43;;
23362;SDS011;11853;48.080;11.960;2023-12-04T05:26:03;11.73;;;10.43;;
23362;SDS011;11853;48.080;11.960;2023-12-04T05:28:30;11.65;;;10.25;;
23362;SDS011;11853;48.080;11.960;2023-12-04T05:30:56;10.90;;;9.75;;
23362;SDS011;11853;48.080;11.960;2023-12-04T05:33:21;11.50;;;10.30;;
23362;SDS011;11853;48.080;11.960;2023-12-04T05:35:47;11.10;;;9.98;;
23362;SDS011;11853;48.080;11.960;2023-12-04T05:38:13;11.32;;;10.13;;
23362;SDS011;11853;48.080;11.960;2023-12-04T05:40:39;10.68;;;9.60;;
23362;SDS011;11853;48.080;11.960;2023-12-04T05:43:05;12.75;;;11.07;;
23362;SDS011;11853;48.080;11.960;2023-12-04T05:45:30;11.95;;;10.02;;
23362;SDS011;11853;48.080;11.960;2023-12-04T05:47:56;11.70;;;10.50;;
23362;SDS011;11853;48.080;11.960;2023-12-04T05:50:22;12.35;;;10.98;;
23362;SDS011;11853;48.080;11.960;2023-12-04T05:52:48;10.77;;;9.60;;
23362;SDS011;11853;48.080;11.960;2023-12-04T05:55:13;12.05;;;10.13;;
23362;SDS011;11853;48.080;11.960;2023-12-04T05:57:39;11.50;;;10.10;;
23362;SDS011;11853;48.080;11.960;2023-12-04T06:00:06;11.35;;;9.88;;
23362;SDS011;11853;48.080;11.960;2023-12-04T06:02:42;12.35;;;9.57;;
23362;SDS011;11853;48.080;11.960;2023-12-04T06:05:08;10.73;;;9.63;;
23362;SDS011;11853;48.080;11.960;2023-12-04T06:07:35;10.55;;;9.45;;
23362;SDS011;11853;48.080;11.960;2023-12-04T06:10:01;12.07;;;9.75;;
23362;SDS011;11853;48.080;11.960;2023-12-04T06:12:32;12.40;;;9.88;;
23362;SDS011;11853;48.080;11.960;2023-12-04T06:14:59;10.27;;;9.10;;
23362;SDS011;11853;48.080;11.960;2023-12-04T06:17:25;13.80;;;10.50;;
23362;SDS011;11853;48.080;11.960;2023-12-04T06:19:51;13.23;;;10.90;;
23362;SDS011;11853;48.080;11.960;2023-12-04T06:22:17;13.32;;;11.38;;
23362;SDS011;11853;48.080;11.960;2023-12-04T06:24:45;13.45;;;10.68;;
23362;SDS011;11853;48.080;11.960;2023-12-04T06:27:12;21.13;;;15.95;;
23362;SDS011;11853;48.080;11.960;2023-12-04T06:29:41;19.63;;;14.75;;
23362;SDS011;11853;48.080;11.960;2023-12-04T06:32:08;15.98;;;11.73;;
23362;SDS011;11853;48.080;11.960;2023-12-04T06:34:35;15.80;;;14.15;;
23362;SDS011;11853;48.080;11.960;2023-12-04T06:37:06;17.25;;;13.93;;
23362;SDS011;11853;48.080;11.960;2023-12-04T06:39:35;14.18;;;12.73;;
23362;SDS011;11853;48.080;11.960;2023-12-04T06:42:03;16.40;;;13.98;;
23362;SDS011;11853;48.080;11.960;2023-12-04T06:44:30;12.73;;;11.32;;
23362;SDS011;11853;48.080;11.960;2023-12-04T06:46:56;11.82;;;10.48;;
23362;SDS011;11853;48.080;11.960;2023-12-04T06:49:31;12.85;;;10.20;;
23362;SDS011;11853;48.080;11.960;2023-12-04T06:52:00;10.77;;;9.52;;
23362;SDS011;11853;48.080;11.960;2023-12-04T06:54:26;12.63;;;10.63;;
23362;SDS011;11853;48.080;11.960;2023-12-04T06:56:52;11.80;;;9.98;;
23362;SDS011;11853;48.080;11.960;2023-12-04T06:59:18;14.27;;;10.90;;
23362;SDS011;11853;48.080;11.960;2023-12-04T07:01:44;14.02;;;12.13;;
23362;SDS011;11853;48.080;11.960;2023-12-04T07:04:10;18.45;;;13.43;;
23362;SDS011;11853;48.080;11.960;2023-12-04T07:06:36;20.08;;;14.63;;
23362;SDS011;11853;48.080;11.960;2023-12-04T07:09:02;18.05;;;12.63;;
23362;SDS011;11853;48.080;11.960;2023-12-04T07:11:28;13.50;;;10.57;;
23362;SDS011;11853;48.080;11.960;2023-12-04T07:13:55;11.80;;;10.20;;
23362;SDS011;11853;48.080;11.960;2023-12-04T07:16:20;12.30;;;10.82;;
23362;SDS011;11853;48.080;11.960;2023-12-04T07:18:46;12.05;;;10.77;;
23362;SDS011;11853;48.080;11.960;2023-12-04T07:21:12;13.35;;;10.80;;
23362;SDS011;11853;48.080;11.960;2023-12-04T07:23:37;13.63;;;11.40;;
23362;SDS011;11853;48.080;11.960;2023-12-04T07:26:03;13.65;;;11.63;;
23362;SDS011;11853;48.080;11.960;2023-12-04T07:28:29;14.20;;;12.05;;
23362;SDS011;11853;48.080;11.960;2023-12-04T07:30:55;16.38;;;12.27;;
23362;SDS011;11853;48.080;11.960;2023-12-04T07:33:21;13.57;;;10.75;;
23362;SDS011;11853;48.080;11.960;2023-12-04T07:35:46;11.82;;;9.48;;
23362;SDS011;11853;48.080;11.960;2023-12-04T07:38:12;11.88;;;9.95;;
23362;SDS011;11853;48.080;11.960;2023-12-04T07:40:38;12.32;;;10.65;;
23362;SDS011;11853;48.080;11.960;2023-12-04T07:43:03;15.90;;;11.52;;
23362;SDS011;11853;48.080;11.960;2023-12-04T07:45:29;16.60;;;12.63;;
23362;SDS011;11853;48.080;11.960;2023-12-04T07:47:55;18.80;;;13.85;;
23362;SDS011;11853;48.080;11.960;2023-12-04T07:50:21;15.75;;;12.88;;
23362;SDS011;11853;48.080;11.960;2023-12-04T07:52:46;17.23;;;14.07;;
23362;SDS011;11853;48.080;11.960;2023-12-04T07:55:12;16.33;;;13.50;;
23362;SDS011;11853;48.080;11.960;2023-12-04T07:57:39;18.92;;;14.05;;
23362;SDS011;11853;48.080;11.960;2023-12-04T08:00:05;17.33;;;13.57;;
23362;SDS011;11853;48.080;11.960;2023-12-04T08:02:31;14.32;;;12.60;;
23362;SDS011;11853;48.080;11.960;2023-12-04T08:04:56;12.80;;;11.13;;
23362;SDS011;11853;48.080;11.960;2023-12-04T08:07:22;14.80;;;11.93;;
23362;SDS011;11853;48.080;11.960;2023-12-04T08:09:48;18.58;;;13.02;;
23362;SDS011;11853;48.080;11.960;2023-12-04T08:12:13;19.33;;;13.38;;
23362;SDS011;11853;48.080;11.960;2023-12-04T08:14:39;22.02;;;13.68;;
23362;SDS011;11853;48.080;11.960;2023-12-04T08:17:05;20.75;;;12.65;;
23362;SDS011;11853;48.080;11.960;2023-12-04T08:19:31;17.48;;;11.40;;
23362;SDS011;11853;48.080;11.960;2023-12-04T08:21:57;15.98;;;12.55;;
23362;SDS011;11853;48.080;11.960;2023-12-04T08:24:23;12.65;;;11.35;;
23362;SDS011;11853;48.080;11.960;2023-12-04T08:26:49;11.10;;;9.93;;
23362;SDS011;11853;48.080;11.960;2023-12-04T08:29:18;12.30;;;10.75;;
23362;SDS011;11853;48.080;11.960;2023-12-04T08:31:44;13.27;;;11.57;;
23362;SDS011;11853;48.080;11.960;2023-12-04T08:34:09;12.95;;;11.00;;
23362;SDS011;11853;48.080;11.960;2023-12-04T08:36:35;12.43;;;11.00;;
23362;SDS011;11853;48.080;11.960;2023-12-04T08:39:04;11.65;;;9.13;;
23362;SDS011;11853;48.080;11.960;2023-12-04T08:41:29;10.65;;;9.18;;
23362;SDS011;11853;48.080;11.960;2023-12-04T08:43:55;10.98;;;9.63;;
23362;SDS011;11853;48.080;11.960;2023-12-04T08:46:21;12.73;;;11.43;;
23362;SDS011;11853;48.080;11.960;2023-12-04T08:48:47;12.68;;;11.27;;
23362;SDS011;11853;48.080;11.960;2023-12-04T08:51:16;13.18;;;10.98;;
23362;SDS011;11853;48.080;11.960;2023-12-04T08:53:42;11.90;;;10.60;;
23362;SDS011;11853;48.080;11.960;2023-12-04T08:56:08;10.68;;;9.57;;
23362;SDS011;11853;48.080;11.960;2023-12-04T08:58:34;12.20;;;9.55;;
23362;SDS011;11853;48.080;11.960;2023-12-04T09:01:01;11.82;;;9.55;;
23362;SDS011;11853;48.080;11.960;2023-12-04T09:03:27;12.18;;;10.02;;
23362;SDS011;11853;48.080;11.960;2023-12-04T09:05:52;11.35;;;9.77;;
23362;SDS011;11853;48.080;11.960;2023-12-04T09:08:22;13.40;;;11.20;;
23362;SDS011;11853;48.080;11.960;2023-12-04T09:10:48;13.95;;;11.40;;
23362;SDS011;11853;48.080;11.960;2023-12-04T09:13:15;12.75;;;11.25;;
23362;SDS011;11853;48.080;11.960;2023-12-04T09:15:40;13.38;;;11.02;;
23362;SDS011;11853;48.080;11.960;2023-12-04T09:18:06;12.13;;;10.48;;
23362;SDS011;11853;48.080;11.960;2023-12-04T09:20:32;14.30;;;11.02;;
23362;SDS011;11853;48.080;11.960;2023-12-04T09:22:57;15.07;;;11.73;;
23362;SDS011;11853;48.080;11.960;2023-12-04T09:25:23;15.40;;;11.57;;
23362;SDS011;11853;48.080;11.960;2023-12-04T09:27:49;15.02;;;11.60;;
23362;SDS011;11853;48.080;11.960;2023-12-04T09:30:14;14.05;;;9.68;;
23362;SDS011;11853;48.080;11.960;2023-12-04T09:32:40;13.23;;;9.35;;
23362;SDS011;11853;48.080;11.960;2023-12-04T09:35:06;11.02;;;8.32;;
23362;SDS011;11853;48.080;11.960;2023-12-04T09:37:32;9.77;;;8.38;;
23362;SDS011;11853;48.080;11.960;2023-12-04T09:39:58;11.27;;;8.23;;
23362;SDS011;11853;48.080;11.960;2023-12-04T09:42:23;8.48;;;7.57;;
23362;SDS011;11853;48.080;11.960;2023-12-04T09:44:49;9.05;;;7.82;;
23362;SDS011;11853;48.080;11.960;2023-12-04T09:47:18;9.00;;;7.72;;
23362;SDS011;11853;48.080;11.960;2023-12-04T09:49:44;10.23;;;7.65;;
23362;SDS011;11853;48.080;11.960;2023-12-04T09:52:10;8.05;;;7.25;;
23362;SDS011;11853;48.080;11.960;2023-12-04T09:54:36;9.68;;;8.20;;
23362;SDS011;11853;48.080;11.960;2023-12-04T09:57:04;8.15;;;7.28;;
23362;SDS011;11853;48.080;11.960;2023-12-04T09:59:30;10.15;;;7.60;;
23362;SDS011;11853;48.080;11.960;2023-12-04T10:01:57;11.68;;;9.07;;
23362;SDS011;11853;48.080;11.960;2023-12-04T10:04:23;9.50;;;8.00;;
23362;SDS011;11853;48.080;11.960;2023-12-04T10:06:53;9.20;;;8.30;;
23362;SDS011;11853;48.080;11.960;2023-12-04T10:09:19;9.55;;;8.27;;
23362;SDS011;11853;48.080;11.960;2023-12-04T10:11:47;7.43;;;6.72;;
23362;SDS011;11853;48.080;11.960;2023-12-04T10:14:16;10.23;;;9.13;;
23362;SDS011;11853;48.080;11.960;2023-12-04T10:16:44;9.23;;;8.32;;
23362;SDS011;11853;48.080;11.960;2023-12-04T10:21:51;9.15;;;7.63;;
23362;SDS011;11853;48.080;11.960;2023-12-04T10:24:32;9.68;;;7.95;;
23362;SDS011;11853;48.080;11.960;2023-12-04T10:27:01;10.73;;;8.30;;
23362;SDS011;11853;48.080;11.960;2023-12-04T10:29:40;10.10;;;8.80;;
23362;SDS011;11853;48.080;11.960;2023-12-04T10:32:13;9.80;;;7.13;;
23362;SDS011;11853;48.080;11.960;2023-12-04T10:34:43;8.20;;;7.45;;
23362;SDS011;11853;48.080;11.960;2023-12-04T10:37:09;7.25;;;6.55;;
23362;SDS011;11853;48.080;11.960;2023-12-04T10:39:48;6.55;;;5.90;;
23362;SDS011;11853;48.080;11.960;2023-12-04T10:42:25;6.90;;;6.20;;
23362;SDS011;11853;48.080;11.960;2023-12-04T10:44:57;7.05;;;6.35;;
23362;SDS011;11853;48.080;11.960;2023-12-04T10:47:24;9.20;;;7.00;;
23362;SDS011;11853;48.080;11.960;2023-12-04T10:49:50;11.77;;;7.97;;
23362;SDS011;11853;48.080;11.960;2023-12-04T10:52:19;8.93;;;7.43;;
23362;SDS011;11853;48.080;11.960;2023-12-04T10:54:46;8.00;;;6.90;;
23362;SDS011;11853;48.080;11.960;2023-12-04T10:57:13;7.75;;;6.20;;
23362;SDS011;11853;48.080;11.960;2023-12-04T10:59:46;6.97;;;6.20;;
23362;SDS011;11853;48.080;11.960;2023-12-04T11:02:14;6.68;;;5.75;;
23362;SDS011;11853;48.080;11.960;2023-12-04T11:04:48;9.80;;;7.13;;
23362;SDS011;11853;48.080;11.960;2023-12-04T11:07:18;7.20;;;6.38;;
23362;SDS011;11853;48.080;11.960;2023-12-04T11:09:46;8.82;;;7.50;;
23362;SDS011;11853;48.080;11.960;2023-12-04T11:12:14;7.97;;;6.70;;
23362;SDS011;11853;48.080;11.960;2023-12-04T11:17:14;7.75;;;6.10;;
23362;SDS011;11853;48.080;11.960;2023-12-04T11:19:45;7.72;;;6.93;;
23362;SDS011;11853;48.080;11.960;2023-12-04T11:22:17;7.28;;;6.57;;
23362;SDS011;11853;48.080;11.960;2023-12-04T11:24:46;8.27;;;7.00;;
23362;SDS011;11853;48.080;11.960;2023-12-04T11:27:14;7.85;;;6.57;;
23362;SDS011;11853;48.080;11.960;2023-12-04T11:29:41;7.53;;;6.43;;
23362;SDS011;11853;48.080;11.960;2023-12-04T11:32:07;8.73;;;7.20;;
23362;SDS011;11853;48.080;11.960;2023-12-04T11:37:12;9.00;;;7.40;;
23362;SDS011;11853;48.080;11.960;2023-12-04T11:39:38;8.23;;;7.25;;
23362;SDS011;11853;48.080;11.960;2023-12-04T11:42:07;7.97;;;6.95;;
23362;SDS011;11853;48.080;11.960;2023-12-04T11:44:34;14.45;;;8.35;;
23362;SDS011;11853;48.080;11.960;2023-12-04T11:47:04;14.85;;;8.00;;
23362;SDS011;11853;48.080;11.960;2023-12-04T11:49:32;8.43;;;7.53;;
23362;SDS011;11853;48.080;11.960;2023-12-04T11:51:58;9.98;;;8.15;;
23362;SDS011;11853;48.080;11.960;2023-12-04T11:54:25;8.85;;;7.95;;
23362;SDS011;11853;48.080;11.960;2023-12-04T11:56:57;9.68;;;8.25;;
23362;SDS011;11853;48.080;11.960;2023-12-04T11:59:24;8.77;;;7.93;;
23362;SDS011;11853;48.080;11.960;2023-12-04T12:01:50;10.45;;;9.00;;
23362;SDS011;11853;48.080;11.960;2023-12-04T12:04:19;13.73;;;9.30;;
23362;SDS011;11853;48.080;11.960;2023-12-04T12:06:45;14.43;;;11.05;;
23362;SDS011;11853;48.080;11.960;2023-12-04T12:09:11;15.35;;;10.80;;
23362;SDS011;11853;48.080;11.960;2023-12-04T12:11:37;11.98;;;9.55;;
23362;SDS011;11853;48.080;11.960;2023-12-04T12:14:04;8.70;;;7.80;;
23362;SDS011;11853;48.080;11.960;2023-12-04T12:16:31;9.50;;;8.02;;
23362;SDS011;11853;48.080;11.960;2023-12-04T12:18:57;9.25;;;8.18;;
23362;SDS011;11853;48.080;11.960;2023-12-04T12:21:23;8.90;;;7.82;;
23362;SDS011;11853;48.080;11.960;2023-12-04T12:23:50;9.98;;;8.45;;
23362;SDS011;11853;48.080;11.960;2023-12-04T12:26:15;14.15;;;10.27;;
23362;SDS011;11853;48.080;11.960;2023-12-04T12:28:41;13.52;;;10.13;;
23362;SDS011;11853;48.080;11.960;2023-12-04T12:31:07;13.95;;;9.85;;
23362;SDS011;11853;48.080;11.960;2023-12-04T12:33:33;10.90;;;9.25;;
23362;SDS011;11853;48.080;11.960;2023-12-04T12:35:59;10.13;;;8.45;;
23362;SDS011;11853;48.080;11.960;2023-12-04T12:38:26;10.32;;;8.18;;
23362;SDS011;11853;48.080;11.960;2023-12-04T12:40:51;10.48;;;9.35;;
23362;SDS011;11853;48.080;11.960;2023-12-04T12:43:19;10.32;;;8.57;;
23362;SDS011;11853;48.080;11.960;2023-12-04T12:45:48;10.63;;;8.93;;
23362;SDS011;11853;48.080;11.960;2023-12-04T12:48:14;14.38;;;9.55;;
23362;SDS011;11853;48.080;11.960;2023-12-04T12:50:46;11.45;;;9.35;;
23362;SDS011;11853;48.080;11.960;2023-12-04T12:53:15;13.45;;;10.32;;
23362;SDS011;11853;48.080;11.960;2023-12-04T12:55:45;11.85;;;10.60;;
23362;SDS011;11853;48.080;11.960;2023-12-04T12:58:13;15.48;;;12.13;;
23362;SDS011;11853;48.080;11.960;2023-12-04T13:00:39;17.38;;;12.68;;
23362;SDS011;11853;48.080;11.960;2023-12-04T13:03:17;17.83;;;12.68;;
23362;SDS011;11853;48.080;11.960;2023-12-04T13:05:47;13.65;;;11.65;;
23362;SDS011;11853;48.080;11.960;2023-12-04T13:08:13;12.90;;;11.50;;
23362;SDS011;11853;48.080;11.960;2023-12-04T13:10:42;14.18;;;11.45;;
23362;SDS011;11853;48.080;11.960;2023-12-04T13:13:14;17.13;;;12.10;;
23362;SDS011;11853;48.080;11.960;2023-12-04T13:15:41;14.50;;;11.32;;
23362;SDS011;11853;48.080;11.960;2023-12-04T13:18:08;15.63;;;11.73;;
23362;SDS011;11853;48.080;11.960;2023-12-04T13:20:34;14.32;;;11.07;;
23362;SDS011;11853;48.080;11.960;2023-12-04T13:23:00;15.05;;;10.98;;
23362;SDS011;11853;48.080;11.960;2023-12-04T13:25:28;16.10;;;12.65;;
23362;SDS011;11853;48.080;11.960;2023-12-04T13:27:54;16.70;;;13.18;;
23362;SDS011;11853;48.080;11.960;2023-12-04T13:30:20;15.30;;;12.43;;
23362;SDS011;11853;48.080;11.960;2023-12-04T13:32:46;18.75;;;13.73;;
23362;SDS011;11853;48.080;11.960;2023-12-04T13:35:15;17.35;;;13.75;;
23362;SDS011;11853;48.080;11.960;2023-12-04T13:37:41;17.73;;;13.07;;
23362;SDS011;11853;48.080;11.960;2023-12-04T13:40:06;15.48;;;12.75;;
23362;SDS011;11853;48.080;11.960;2023-12-04T13:42:33;15.80;;;12.70;;
23362;SDS011;11853;48.080;11.960;2023-12-04T13:45:17;17.40;;;14.02;;
23362;SDS011;11853;48.080;11.960;2023-12-04T13:47:46;21.17;;;14.05;;
23362;SDS011;11853;48.080;11.960;2023-12-04T13:50:11;17.60;;;13.90;;
23362;SDS011;11853;48.080;11.960;2023-12-04T13:52:37;17.63;;;14.07;;
23362;SDS011;11853;48.080;11.960;2023-12-04T13:55:04;15.25;;;13.27;;
23362;SDS011;11853;48.080;11.960;2023-12-04T13:57:45;17.17;;;13.50;;
23362;SDS011;11853;48.080;11.960;2023-12-04T14:00:23;16.27;;;13.20;;
23362;SDS011;11853;48.080;11.960;2023-12-04T14:02:54;19.40;;;14.02;;
23362;SDS011;11853;48.080;11.960;2023-12-04T14:05:29;17.85;;;14.13;;
23362;SDS011;11853;48.080;11.960;2023-12-04T14:07:55;17.63;;;13.77;;
23362;SDS011;11853;48.080;11.960;2023-12-04T14:10:22;17.52;;;13.23;;
23362;SDS011;11853;48.080;11.960;2023-12-04T14:12:48;18.35;;;13.40;;
23362;SDS011;11853;48.080;11.960;2023-12-04T14:15:14;16.88;;;13.52;;
23362;SDS011;11853;48.080;11.960;2023-12-04T14:17:40;15.38;;;12.93;;
23362;SDS011;11853;48.080;11.960;2023-12-04T14:20:06;15.45;;;12.80;;
23362;SDS011;11853;48.080;11.960;2023-12-04T14:22:40;16.60;;;12.48;;